Time;durP1;ratioP1;P1;durP2;ratioP2;P2;SDS_P1;SDS_P2;PMS_P1;PMS_P2;Temp;Humidity;BMP_temperature;BMP_pressure;BME280_temperature;BME280_humidity;BME280_pressure;Samples;Min_cycle;Max_cycle;Signal;HPM_P1;HPM_P2
2022/03/06 00:02:07;;;;;;;9.10;3.95;;;-1.20;99.90;;;;;;5023107;28;20108;-77
2022/03/06 00:04:32;;;;;;;8.70;3.67;;;-1.20;99.90;;;;;;5019387;28;20116;-77
2022/03/06 00:06:58;;;;;;;10.00;4.32;;;-1.20;99.90;;;;;;5021913;28;20060;-77
2022/03/06 00:09:24;;;;;;;9.20;4.00;;;-1.20;99.90;;;;;;5020845;28;20758;-76
2022/03/06 00:11:50;;;;;;;9.00;3.85;;;-1.20;99.90;;;;;;5021340;28;20103;-76
2022/03/06 00:14:16;;;;;;;9.90;4.50;;;-1.10;99.90;;;;;;5020966;28;20037;-76
2022/03/06 00:16:42;;;;;;;9.55;4.05;;;-1.10;99.90;;;;;;5036991;28;20440;-76
2022/03/06 00:19:08;;;;;;;8.65;3.70;;;-1.10;99.90;;;;;;5027787;28;20060;-76
2022/03/06 00:21:35;;;;;;;11.25;4.25;;;-1.10;99.90;;;;;;5026930;28;20658;-76
2022/03/06 00:24:01;;;;;;;10.50;3.90;;;-1.10;99.90;;;;;;5014736;28;20034;-76
2022/03/06 00:26:27;;;;;;;10.80;4.47;;;-1.10;99.90;;;;;;5021929;28;20037;-76
2022/03/06 00:28:52;;;;;;;11.80;4.50;;;-1.20;99.90;;;;;;5004388;28;20056;-77
2022/03/06 00:31:18;;;;;;;11.38;4.88;;;-1.10;99.90;;;;;;5010934;28;20029;-76
2022/03/06 00:33:44;;;;;;;17.42;8.73;;;-1.10;99.90;;;;;;5003137;28;20095;-77
2022/03/06 00:36:10;;;;;;;15.50;6.88;;;-1.00;99.90;;;;;;5026790;28;20540;-76
2022/03/06 00:38:35;;;;;;;12.93;5.88;;;-1.10;99.90;;;;;;5013756;28;20039;-77
2022/03/06 00:41:01;;;;;;;12.80;6.20;;;-1.10;99.90;;;;;;4998602;28;20051;-77
2022/03/06 00:43:28;;;;;;;13.95;6.18;;;-1.10;99.90;;;;;;5020390;28;20033;-76
2022/03/06 00:45:53;;;;;;;13.23;6.13;;;-1.20;99.90;;;;;;5003389;28;20049;-76
2022/03/06 00:48:19;;;;;;;12.73;6.03;;;-1.10;99.90;;;;;;5017959;28;20491;-77
2022/03/06 00:50:45;;;;;;;12.23;4.75;;;-1.10;99.90;;;;;;5026781;28;20033;-77
2022/03/06 00:53:10;;;;;;;10.40;4.97;;;-1.20;99.90;;;;;;5026837;28;20029;-76
2022/03/06 00:55:38;;;;;;;10.85;4.60;;;-1.20;99.90;;;;;;5009991;28;20038;-76
2022/03/06 00:58:06;;;;;;;9.98;4.25;;;-1.10;99.90;;;;;;4997765;28;20035;-76
2022/03/06 01:00:46;;;;;;;11.38;4.38;;;-1.10;99.90;;;;;;5034305;28;20103;-76
2022/03/06 01:03:17;;;;;;;16.80;6.93;;;-1.10;99.90;;;;;;5036557;28;20477;-76
2022/03/06 01:05:43;;;;;;;12.32;6.28;;;-1.00;99.90;;;;;;5019808;28;20072;-76
2022/03/06 01:08:09;;;;;;;13.85;5.68;;;-1.00;99.90;;;;;;5003017;28;20021;-77
2022/03/06 01:10:37;;;;;;;13.07;5.22;;;-1.10;99.90;;;;;;5019600;28;20486;-76
2022/03/06 01:13:05;;;;;;;11.15;5.00;;;-1.10;99.90;;;;;;5026541;28;20470;-75
2022/03/06 01:15:31;;;;;;;9.05;3.60;;;-1.00;99.90;;;;;;5001292;28;20467;-76
2022/03/06 01:17:57;;;;;;;13.40;4.82;;;-1.10;99.90;;;;;;5035929;28;20124;-77
2022/03/06 01:20:24;;;;;;;10.15;4.82;;;-1.10;99.90;;;;;;5020740;28;20033;-77
2022/03/06 01:22:50;;;;;;;9.00;3.47;;;-1.10;99.90;;;;;;5016720;28;20083;-77
2022/03/06 01:25:16;;;;;;;8.52;3.33;;;-1.20;99.90;;;;;;5018882;28;20046;-76
2022/03/06 01:27:42;;;;;;;9.57;3.78;;;-1.30;99.90;;;;;;5019900;28;20438;-76
2022/03/06 01:30:11;;;;;;;9.70;4.13;;;-1.20;99.90;;;;;;5035859;28;20400;-76
2022/03/06 01:32:37;;;;;;;7.93;2.85;;;-1.20;99.90;;;;;;5015216;28;20037;-76
2022/03/06 01:35:04;;;;;;;7.07;2.97;;;-1.20;99.90;;;;;;5019390;28;20392;-77
2022/03/06 01:37:29;;;;;;;10.70;4.30;;;-1.20;99.90;;;;;;5016524;28;20028;-77
2022/03/06 01:39:55;;;;;;;10.70;3.47;;;-1.20;99.90;;;;;;5018420;28;20033;-76
2022/03/06 01:42:21;;;;;;;10.02;3.75;;;-1.30;99.90;;;;;;5018229;28;20485;-77
2022/03/06 01:44:51;;;;;;;10.23;4.47;;;-1.20;99.90;;;;;;5012603;28;20041;-77
2022/03/06 01:47:40;;;;;;;8.45;3.92;;;-1.20;99.90;;;;;;5019197;28;20131;-77
2022/03/06 01:50:21;;;;;;;8.27;3.40;;;-1.20;99.90;;;;;;5001076;28;20048;-77
2022/03/06 01:52:48;;;;;;;11.68;5.43;;;-1.30;99.90;;;;;;5001699;28;20037;-76
2022/03/06 01:55:15;;;;;;;13.75;6.47;;;-1.20;99.90;;;;;;5000551;28;20029;-76
2022/03/06 01:57:42;;;;;;;14.68;6.78;;;-1.10;99.90;;;;;;5017957;28;20033;-77
2022/03/06 02:00:14;;;;;;;21.17;10.15;;;-1.20;99.90;;;;;;5019691;28;20116;-76
2022/03/06 02:02:41;;;;;;;15.98;7.80;;;-1.20;99.90;;;;;;5018873;28;20056;-77
2022/03/06 02:05:07;;;;;;;19.02;9.32;;;-1.20;99.90;;;;;;5017959;28;20037;-76
2022/03/06 02:07:33;;;;;;;17.05;8.15;;;-1.20;99.90;;;;;;5019295;28;20042;-76
2022/03/06 02:10:00;;;;;;;19.52;9.35;;;-1.20;99.90;;;;;;5034840;28;20029;-77
2022/03/06 02:12:26;;;;;;;14.70;7.47;;;-1.20;99.90;;;;;;5001622;28;20033;-77
2022/03/06 02:14:53;;;;;;;15.48;7.10;;;-1.30;99.90;;;;;;5001844;28;20044;-76
2022/03/06 02:17:20;;;;;;;11.85;5.78;;;-1.30;99.90;;;;;;5000800;28;20033;-76
2022/03/06 02:19:52;;;;;;;12.93;5.32;;;-1.30;99.90;;;;;;5034228;28;20119;-77
2022/03/06 02:22:31;;;;;;;13.02;5.47;;;-1.30;99.90;;;;;;5019679;28;20439;-77
2022/03/06 02:24:58;;;;;;;11.45;5.00;;;-1.40;99.90;;;;;;5035380;28;20072;-77
2022/03/06 02:27:25;;;;;;;12.05;4.82;;;-1.40;99.90;;;;;;5018287;28;20082;-77
2022/03/06 02:29:51;;;;;;;11.35;5.07;;;-1.40;99.90;;;;;;5035105;28;20120;-77
2022/03/06 02:32:19;;;;;;;9.48;4.88;;;-1.40;99.90;;;;;;5034300;28;20025;-76
2022/03/06 02:34:47;;;;;;;7.22;3.40;;;-1.50;99.90;;;;;;5017729;28;20043;-77
2022/03/06 02:37:14;;;;;;;9.50;4.10;;;-1.40;99.90;;;;;;5001676;28;20278;-76
2022/03/06 02:39:43;;;;;;;13.15;7.05;;;-1.40;99.90;;;;;;5034643;28;20029;-76
2022/03/06 02:42:09;;;;;;;12.90;5.97;;;-1.40;99.90;;;;;;5000608;28;20029;-76
2022/03/06 02:44:36;;;;;;;9.75;5.30;;;-1.40;99.90;;;;;;5000331;28;20428;-76
2022/03/06 02:47:02;;;;;;;7.88;3.53;;;-1.50;99.90;;;;;;5017148;28;20053;-77
2022/03/06 02:49:28;;;;;;;7.80;3.90;;;-1.50;99.90;;;;;;5017010;28;20029;-76
2022/03/06 02:51:53;;;;;;;9.00;3.63;;;-1.50;99.90;;;;;;4995806;28;20036;-76
2022/03/06 02:54:20;;;;;;;8.10;3.60;;;-1.60;99.90;;;;;;5017434;28;20061;-76
2022/03/06 02:56:49;;;;;;;7.05;3.35;;;-1.60;99.90;;;;;;5019114;28;20037;-76
2022/03/06 02:59:16;;;;;;;6.80;2.90;;;-1.50;99.90;;;;;;5033964;28;20091;-77
2022/03/06 03:01:42;;;;;;;8.95;3.60;;;-1.50;99.90;;;;;;4996070;28;20469;-77
2022/03/06 03:04:08;;;;;;;8.35;3.45;;;-1.60;99.90;;;;;;5024093;28;20037;-77
2022/03/06 03:06:34;;;;;;;8.88;4.30;;;-1.60;99.90;;;;;;5017118;28;20025;-76
2022/03/06 03:09:01;;;;;;;8.38;3.80;;;-1.60;99.90;;;;;;5018019;28;20637;-76
2022/03/06 03:11:29;;;;;;;7.10;3.63;;;-1.60;99.90;;;;;;5034072;28;20033;-77
2022/03/06 03:13:54;;;;;;;10.57;4.72;;;-1.70;99.90;;;;;;5019293;28;20355;-76
2022/03/06 03:16:20;;;;;;;10.60;5.78;;;-1.60;99.90;;;;;;5017380;28;20052;-77
2022/03/06 03:18:45;;;;;;;8.98;5.00;;;-1.60;99.90;;;;;;5014312;28;20709;-77
2022/03/06 03:21:11;;;;;;;9.15;4.60;;;-1.60;99.90;;;;;;5016649;28;20033;-76
2022/03/06 03:23:37;;;;;;;8.25;4.03;;;-1.60;99.90;;;;;;5015690;28;20025;-76
2022/03/06 03:26:02;;;;;;;8.80;4.00;;;-1.70;99.90;;;;;;5001376;28;20041;-76
2022/03/06 03:28:28;;;;;;;11.85;6.20;;;-1.70;99.90;;;;;;5016961;28;20078;-77
2022/03/06 03:30:53;;;;;;;11.23;5.57;;;-1.60;99.90;;;;;;5017018;28;20146;-77
2022/03/06 03:33:19;;;;;;;9.65;4.60;;;-1.70;99.90;;;;;;5019503;28;20026;-76
2022/03/06 03:35:44;;;;;;;10.90;5.65;;;-1.70;99.90;;;;;;5004636;28;20133;-77
2022/03/06 03:38:10;;;;;;;8.70;5.18;;;-1.70;99.90;;;;;;5005236;28;20026;-77
2022/03/06 03:40:36;;;;;;;10.98;5.38;;;-1.80;99.90;;;;;;5002924;28;20496;-77
2022/03/06 03:43:01;;;;;;;9.18;5.10;;;-1.70;99.90;;;;;;5037033;28;20029;-77
2022/03/06 03:45:27;;;;;;;12.00;5.93;;;-1.70;99.90;;;;;;5004215;28;20069;-76
2022/03/06 03:47:53;;;;;;;8.70;4.20;;;-1.70;99.90;;;;;;5015558;28;20045;-76
2022/03/06 03:50:18;;;;;;;9.63;4.90;;;-1.70;99.90;;;;;;5021956;28;20064;-76
2022/03/06 03:52:44;;;;;;;7.75;4.53;;;-1.80;99.90;;;;;;5020368;28;20041;-77
2022/03/06 03:55:10;;;;;;;7.88;4.18;;;-1.80;99.90;;;;;;5020883;28;20508;-77
2022/03/06 03:57:35;;;;;;;7.07;3.40;;;-1.80;99.90;;;;;;5021182;28;20076;-77
2022/03/06 04:00:01;;;;;;;10.85;5.13;;;-1.80;99.90;;;;;;5019530;28;20036;-76
2022/03/06 04:02:32;;;;;;;7.00;4.20;;;-1.70;99.90;;;;;;5027305;28;20036;-77
2022/03/06 04:04:58;;;;;;;7.60;3.75;;;-1.80;99.90;;;;;;5027745;28;20033;-77
2022/03/06 04:07:24;;;;;;;8.95;3.55;;;-1.80;99.90;;;;;;5020296;28;20037;-77
2022/03/06 04:09:49;;;;;;;7.60;4.18;;;-1.80;99.90;;;;;;5020744;28;20092;-77
2022/03/06 04:12:15;;;;;;;10.05;5.15;;;-1.80;99.90;;;;;;5018199;28;20033;-77
2022/03/06 04:14:40;;;;;;;8.07;4.38;;;-1.80;99.90;;;;;;5036556;28;20034;-76
2022/03/06 04:17:06;;;;;;;9.07;5.05;;;-1.90;99.90;;;;;;5028206;28;20065;-77
2022/03/06 04:19:32;;;;;;;10.45;5.63;;;-1.70;99.90;;;;;;5004394;28;20173;-76
2022/03/06 04:21:57;;;;;;;8.30;4.63;;;-1.80;99.90;;;;;;5014759;28;20044;-76
2022/03/06 04:24:23;;;;;;;10.07;4.82;;;-1.90;99.90;;;;;;5020896;28;20040;-76
2022/03/06 04:26:49;;;;;;;7.25;4.22;;;-1.90;99.90;;;;;;5027547;28;20029;-77
2022/03/06 04:29:14;;;;;;;9.18;4.20;;;-1.90;99.90;;;;;;5003841;28;20022;-76
2022/03/06 04:31:40;;;;;;;8.68;4.75;;;-2.00;99.90;;;;;;5027516;28;20053;-77
2022/03/06 04:34:06;;;;;;;8.05;4.22;;;-2.00;99.90;;;;;;5020474;28;20025;-77
2022/03/06 04:36:31;;;;;;;9.23;4.70;;;-2.00;99.90;;;;;;5020021;28;20079;-76
2022/03/06 04:38:57;;;;;;;12.27;5.88;;;-1.90;99.90;;;;;;5021324;28;20041;-76
2022/03/06 04:41:22;;;;;;;8.57;4.22;;;-2.00;99.90;;;;;;5026885;28;20045;-77
2022/03/06 04:43:48;;;;;;;7.80;3.75;;;-2.10;99.90;;;;;;5017127;28;20129;-76
2022/03/06 04:46:14;;;;;;;9.48;4.70;;;-2.10;99.90;;;;;;5024060;28;20061;-76
2022/03/06 04:48:39;;;;;;;10.73;5.25;;;-2.10;99.90;;;;;;5019818;28;20041;-77
2022/03/06 04:51:05;;;;;;;15.00;7.90;;;-2.00;99.90;;;;;;5019307;28;20385;-77
2022/03/06 04:53:31;;;;;;;12.40;6.97;;;-1.90;99.90;;;;;;5026441;28;20477;-76
2022/03/06 04:55:57;;;;;;;10.25;5.32;;;-2.00;99.90;;;;;;5019487;28;20029;-77
2022/03/06 04:58:22;;;;;;;12.18;5.90;;;-2.10;99.90;;;;;;5019826;28;20029;-77
2022/03/06 05:00:48;;;;;;;10.60;5.60;;;-2.10;99.90;;;;;;5035712;28;20033;-76
2022/03/06 05:03:14;;;;;;;13.63;7.18;;;-2.10;99.90;;;;;;5004279;28;20053;-77
2022/03/06 05:05:40;;;;;;;12.85;7.35;;;-2.10;99.90;;;;;;5015416;28;20486;-77
2022/03/06 05:08:06;;;;;;;12.32;6.38;;;-2.10;99.90;;;;;;5035786;28;20032;-77
2022/03/06 05:10:31;;;;;;;9.20;5.47;;;-2.10;99.90;;;;;;5019977;28;20041;-78
2022/03/06 05:12:57;;;;;;;7.70;4.15;;;-2.20;99.90;;;;;;5013094;28;20040;-78
2022/03/06 05:15:23;;;;;;;8.57;4.10;;;-2.20;99.90;;;;;;5025978;28;20135;-78
2022/03/06 05:17:48;;;;;;;7.28;3.80;;;-2.20;99.90;;;;;;5019707;28;20071;-77
2022/03/06 05:20:14;;;;;;;7.78;4.28;;;-2.20;99.90;;;;;;5026604;28;20025;-78
2022/03/06 05:22:40;;;;;;;8.65;3.92;;;-2.30;99.90;;;;;;5020349;28;20167;-77
2022/03/06 05:25:07;;;;;;;8.18;3.45;;;-2.20;99.90;;;;;;5027937;28;20036;-78
2022/03/06 05:27:33;;;;;;;7.03;3.70;;;-2.40;99.90;;;;;;5016771;28;20037;-78
2022/03/06 05:29:59;;;;;;;7.78;3.80;;;-2.40;99.90;;;;;;5036241;28;20034;-77
2022/03/06 05:32:24;;;;;;;7.63;3.40;;;-2.30;99.90;;;;;;5025582;28;20037;-77
2022/03/06 05:34:50;;;;;;;8.50;3.60;;;-2.30;99.90;;;;;;5020406;28;20599;-78
2022/03/06 05:37:16;;;;;;;6.60;3.55;;;-2.30;99.90;;;;;;5019763;28;20037;-78
2022/03/06 05:39:42;;;;;;;6.88;3.40;;;-2.50;99.90;;;;;;5036521;28;20140;-78
2022/03/06 05:42:08;;;;;;;8.15;3.15;;;-2.40;99.90;;;;;;5019013;28;20123;-77
2022/03/06 05:44:33;;;;;;;5.28;2.83;;;-2.50;99.90;;;;;;5020512;28;20041;-77
2022/03/06 05:46:59;;;;;;;6.90;2.95;;;-2.40;99.90;;;;;;5018543;28;20143;-77
2022/03/06 05:49:25;;;;;;;6.60;2.85;;;-2.40;99.90;;;;;;5003320;28;20071;-77
2022/03/06 05:51:51;;;;;;;6.88;2.47;;;-2.50;99.90;;;;;;4995572;28;20557;-77
2022/03/06 05:54:16;;;;;;;5.10;2.40;;;-2.40;99.90;;;;;;5024977;28;20030;-77
2022/03/06 05:56:42;;;;;;;6.18;2.30;;;-2.50;99.90;;;;;;5001614;28;20037;-77
2022/03/06 05:59:08;;;;;;;4.90;2.08;;;-2.40;99.90;;;;;;5000971;28;20057;-77
2022/03/06 06:01:34;;;;;;;7.68;2.83;;;-2.50;99.90;;;;;;5035092;28;20121;-76
2022/03/06 06:04:00;;;;;;;7.05;3.20;;;-2.50;99.90;;;;;;5025938;28;20116;-77
2022/03/06 06:06:27;;;;;;;8.07;3.65;;;-2.40;99.90;;;;;;5013517;28;20056;-77
2022/03/06 06:08:54;;;;;;;8.48;3.13;;;-2.50;99.90;;;;;;5002975;28;20036;-77
2022/03/06 06:11:19;;;;;;;5.65;2.20;;;-2.50;99.90;;;;;;5002133;28;20370;-77
2022/03/06 06:13:45;;;;;;;6.30;2.38;;;-2.40;99.90;;;;;;5003314;28;20028;-78
2022/03/06 06:16:11;;;;;;;6.63;2.95;;;-2.40;99.90;;;;;;5020351;28;20120;-77
2022/03/06 06:18:37;;;;;;;6.70;2.97;;;-2.40;99.90;;;;;;5025977;28;20444;-77
2022/03/06 06:21:03;;;;;;;6.18;3.28;;;-2.50;99.90;;;;;;5018705;28;20029;-77
2022/03/06 06:23:29;;;;;;;4.28;1.83;;;-2.50;99.90;;;;;;5018395;28;20663;-77
2022/03/06 06:25:55;;;;;;;6.10;2.95;;;-2.50;99.90;;;;;;5024816;28;20033;-77
2022/03/06 06:28:21;;;;;;;8.15;3.55;;;-2.40;99.90;;;;;;5019274;28;20152;-77
2022/03/06 06:30:46;;;;;;;5.97;2.75;;;-2.40;99.90;;;;;;5019386;28;20120;-77
2022/03/06 06:33:12;;;;;;;8.80;4.32;;;-2.40;99.90;;;;;;5018284;28;20030;-78
2022/03/06 06:35:38;;;;;;;9.02;4.05;;;-2.40;99.90;;;;;;5001475;28;20109;-77
2022/03/06 06:38:05;;;;;;;7.43;3.88;;;-2.40;99.90;;;;;;5033111;28;20056;-77
2022/03/06 06:40:31;;;;;;;6.47;3.65;;;-2.30;99.90;;;;;;5017252;28;20479;-77
2022/03/06 06:42:58;;;;;;;7.60;4.55;;;-2.30;99.90;;;;;;5019438;28;20379;-77
2022/03/06 06:45:23;;;;;;;9.93;4.78;;;-2.30;99.90;;;;;;5018101;28;20119;-77
2022/03/06 06:47:49;;;;;;;11.25;5.00;;;-2.20;99.90;;;;;;5033932;28;20152;-77
2022/03/06 06:50:15;;;;;;;7.40;4.50;;;-2.20;99.90;;;;;;5019662;28;20033;-77
2022/03/06 06:52:40;;;;;;;9.48;5.57;;;-2.20;99.90;;;;;;5001523;28;20029;-77
2022/03/06 06:55:07;;;;;;;9.95;5.13;;;-2.20;99.90;;;;;;5031037;28;20029;-77
2022/03/06 06:57:32;;;;;;;9.68;4.68;;;-2.10;99.90;;;;;;5017335;28;20052;-77
2022/03/06 06:59:58;;;;;;;12.52;7.45;;;-2.10;99.90;;;;;;5002417;28;20430;-77
2022/03/06 07:02:24;;;;;;;13.98;7.57;;;-2.10;99.90;;;;;;5031376;28;20091;-77
2022/03/06 07:04:50;;;;;;;11.23;6.55;;;-2.00;99.90;;;;;;5023045;28;20045;-77
2022/03/06 07:07:16;;;;;;;11.68;6.07;;;-2.00;99.90;;;;;;5013693;28;20334;-77
2022/03/06 07:09:42;;;;;;;12.18;6.90;;;-1.90;99.90;;;;;;5023060;28;20040;-77
2022/03/06 07:12:08;;;;;;;10.93;6.35;;;-1.90;99.90;;;;;;5007193;28;20029;-77
2022/03/06 07:14:34;;;;;;;11.35;6.88;;;-1.80;99.90;;;;;;5030913;28;20037;-76
2022/03/06 07:17:00;;;;;;;14.23;7.20;;;-1.70;99.90;;;;;;5025451;28;20060;-77
2022/03/06 07:19:25;;;;;;;14.18;8.23;;;-1.70;99.90;;;;;;5040369;28;20402;-77
2022/03/06 07:21:51;;;;;;;13.32;6.90;;;-1.60;99.90;;;;;;5024451;28;20111;-77
2022/03/06 07:24:16;;;;;;;12.48;6.88;;;-1.50;99.90;;;;;;5031348;28;20071;-78
2022/03/06 07:26:42;;;;;;;12.77;6.68;;;-1.50;99.90;;;;;;5006641;28;20196;-77
2022/03/06 07:29:08;;;;;;;9.90;5.45;;;-1.50;99.90;;;;;;5024562;28;20044;-77
2022/03/06 07:31:34;;;;;;;10.55;6.30;;;-1.40;99.90;;;;;;5025607;28;20029;-77
2022/03/06 07:33:59;;;;;;;9.05;5.60;;;-1.40;99.90;;;;;;5008153;28;20040;-77
2022/03/06 07:36:28;;;;;;;9.15;5.80;;;-1.30;99.90;;;;;;5002037;28;20036;-77
2022/03/06 07:38:56;;;;;;;11.95;6.82;;;-1.20;99.90;;;;;;5023605;28;20029;-77
2022/03/06 07:41:23;;;;;;;10.90;6.85;;;-1.20;99.90;;;;;;5023590;28;20508;-77
2022/03/06 07:43:48;;;;;;;15.00;9.68;;;-1.20;99.90;;;;;;5024538;28;20041;-77
2022/03/06 07:46:14;;;;;;;15.10;8.27;;;-1.10;99.90;;;;;;5021363;28;20494;-77
2022/03/06 07:48:39;;;;;;;15.20;8.35;;;-1.10;99.90;;;;;;5021869;28;20037;-77
2022/03/06 07:51:05;;;;;;;12.60;7.50;;;-1.00;99.90;;;;;;5004337;28;20600;-77
2022/03/06 07:53:31;;;;;;;17.20;9.63;;;-1.00;99.90;;;;;;4972006;28;20140;-77
2022/03/06 07:55:56;;;;;;;13.15;7.63;;;-0.90;99.90;;;;;;5022485;28;20042;-77
2022/03/06 07:58:22;;;;;;;15.27;9.35;;;-0.80;99.90;;;;;;5024251;28;20824;-76
2022/03/06 08:00:47;;;;;;;15.05;8.25;;;-0.70;99.90;;;;;;5022201;28;20444;-77
2022/03/06 08:03:13;;;;;;;15.55;10.32;;;-0.60;99.90;;;;;;5037617;28;20025;-78
2022/03/06 08:05:39;;;;;;;16.08;10.35;;;-0.50;99.90;;;;;;5037638;28;20127;-77
2022/03/06 08:08:05;;;;;;;12.63;8.60;;;-0.40;99.90;;;;;;5037184;28;20044;-77
2022/03/06 08:10:31;;;;;;;16.77;10.00;;;-0.30;99.90;;;;;;5038897;28;20113;-79
2022/03/06 08:12:56;;;;;;;12.10;8.02;;;-0.20;99.90;;;;;;5038254;28;20095;-78
2022/03/06 08:15:22;;;;;;;13.40;7.93;;;-0.10;99.90;;;;;;5018125;28;20033;-77
2022/03/06 08:17:47;;;;;;;14.50;9.38;;;0.00;99.90;;;;;;5022235;28;20041;-77
2022/03/06 08:20:13;;;;;;;11.10;7.20;;;0.10;99.90;;;;;;5014667;28;20128;-77
2022/03/06 08:22:38;;;;;;;13.50;6.93;;;0.20;99.90;;;;;;5018965;28;20029;-77
2022/03/06 08:25:05;;;;;;;13.18;7.43;;;0.30;99.90;;;;;;5035822;28;20038;-77
2022/03/06 08:27:32;;;;;;;9.27;5.78;;;0.40;99.90;;;;;;5020090;28;20092;-77
2022/03/06 08:29:58;;;;;;;14.55;8.82;;;0.60;99.90;;;;;;5021139;28;20521;-76
2022/03/06 08:32:24;;;;;;;13.75;8.57;;;0.60;99.90;;;;;;5015500;28;20065;-77
2022/03/06 08:34:51;;;;;;;10.68;6.88;;;0.70;99.90;;;;;;5003431;28;20133;-77
2022/03/06 08:37:18;;;;;;;12.70;6.88;;;0.90;99.90;;;;;;5018988;28;20347;-76
2022/03/06 08:39:46;;;;;;;8.65;5.63;;;1.10;99.90;;;;;;5016557;28;20474;-77
2022/03/06 08:42:12;;;;;;;14.85;9.88;;;1.10;99.90;;;;;;5018877;28;20022;-77
2022/03/06 08:44:38;;;;;;;12.57;6.78;;;1.10;99.90;;;;;;5019043;28;20037;-77
2022/03/06 08:47:04;;;;;;;12.30;7.18;;;1.40;99.90;;;;;;5019057;28;20085;-77
2022/03/06 08:49:29;;;;;;;13.88;8.63;;;1.40;99.90;;;;;;5018038;28;20454;-77
2022/03/06 08:51:55;;;;;;;15.63;8.40;;;1.50;99.90;;;;;;4974298;28;20105;-77
2022/03/06 08:54:21;;;;;;;11.13;7.90;;;1.60;99.90;;;;;;5006818;28;20037;-78
2022/03/06 08:56:46;;;;;;;8.75;5.80;;;1.70;99.90;;;;;;5017857;28;20512;-78
2022/03/06 08:59:12;;;;;;;6.78;4.72;;;2.00;99.90;;;;;;5004629;28;21262;-77
2022/03/06 09:01:38;;;;;;;7.97;4.43;;;2.10;99.90;;;;;;4963224;28;20034;-76
2022/03/06 09:04:04;;;;;;;7.95;4.38;;;2.30;99.90;;;;;;5025082;28;20438;-77
2022/03/06 09:06:30;;;;;;;6.43;3.72;;;2.30;99.90;;;;;;5016347;28;20047;-76
2022/03/06 09:08:55;;;;;;;6.70;4.03;;;2.50;99.90;;;;;;5021094;28;20084;-77
2022/03/06 09:11:21;;;;;;;4.85;2.38;;;2.60;99.90;;;;;;5024530;28;20749;-77
2022/03/06 09:13:46;;;;;;;5.25;3.28;;;2.60;99.90;;;;;;5019276;28;20034;-77
2022/03/06 09:16:12;;;;;;;5.35;3.53;;;2.80;99.90;;;;;;5018442;28;20473;-77
2022/03/06 09:18:38;;;;;;;4.78;3.10;;;2.90;99.90;;;;;;5018654;28;20065;-77
2022/03/06 09:21:03;;;;;;;7.65;5.25;;;2.90;99.90;;;;;;5017677;28;20508;-77
2022/03/06 09:23:29;;;;;;;8.60;4.65;;;3.00;99.90;;;;;;5013169;28;20029;-77
2022/03/06 09:25:55;;;;;;;9.63;5.95;;;3.00;99.90;;;;;;5024919;28;20037;-76
2022/03/06 09:28:21;;;;;;;8.35;5.28;;;3.00;99.90;;;;;;5018197;28;20032;-77
2022/03/06 09:30:47;;;;;;;7.63;4.88;;;3.20;99.90;;;;;;5024229;28;20043;-78
2022/03/06 09:33:12;;;;;;;5.18;3.60;;;3.40;99.90;;;;;;5016771;28;20132;-78
2022/03/06 09:35:38;;;;;;;7.20;4.03;;;3.50;99.90;;;;;;5017038;28;20275;-78
2022/03/06 09:38:04;;;;;;;7.35;3.63;;;3.50;99.90;;;;;;5013349;28;20048;-77
2022/03/06 09:40:29;;;;;;;7.20;3.45;;;3.60;99.90;;;;;;5018366;28;20045;-77
2022/03/06 09:42:55;;;;;;;5.28;2.75;;;3.90;99.90;;;;;;5015380;28;20029;-77
2022/03/06 09:45:25;;;;;;;4.38;3.25;;;4.00;99.90;;;;;;5016857;28;20128;-80
2022/03/06 09:47:52;;;;;;;;;;;4.10;99.90;;;;;;5015699;28;20490;-76
2022/03/06 09:50:18;;;;;;;5.50;2.92;;;4.20;99.90;;;;;;5010576;28;19920;-77
2022/03/06 09:52:44;;;;;;;4.63;2.97;;;4.20;99.90;;;;;;4986573;28;20156;-76
2022/03/06 09:55:11;;;;;;;3.75;2.45;;;4.20;99.90;;;;;;5014971;28;20113;-77
2022/03/06 09:57:37;;;;;;;5.00;2.70;;;4.40;99.90;;;;;;5011456;28;20045;-77
2022/03/06 10:00:05;;;;;;;4.95;3.20;;;4.50;99.90;;;;;;5017003;28;20033;-76
2022/03/06 10:02:31;;;;;;;5.45;3.22;;;4.50;99.90;;;;;;5011273;28;20083;-78
2022/03/06 10:04:56;;;;;;;4.93;3.20;;;4.40;99.90;;;;;;5018857;28;20049;-79
2022/03/06 10:07:22;;;;;;;5.18;2.92;;;4.60;99.90;;;;;;5016175;28;20045;-76
2022/03/06 10:09:50;;;;;;;6.47;3.95;;;4.50;99.90;;;;;;4999897;28;20120;-77
2022/03/06 10:12:28;;;;;;;6.40;2.92;;;4.60;99.90;;;;;;5000723;28;20539;-76
2022/03/06 10:14:56;;;;;;;6.40;3.08;;;4.90;99.90;;;;;;5018892;28;20059;-76
2022/03/06 10:17:24;;;;;;;4.95;2.22;;;5.00;99.90;;;;;;4983742;28;21777;-76
2022/03/06 10:19:56;;;;;;;3.83;1.95;;;5.10;99.90;;;;;;5029814;28;20033;-76
2022/03/06 10:22:31;;;;;;;4.35;1.92;;;5.30;99.90;;;;;;5017936;28;20460;-77
2022/03/06 10:25:00;;;;;;;5.05;1.98;;;5.30;99.90;;;;;;5015152;28;20034;-77
2022/03/06 10:27:54;;;;;;;3.65;2.10;;;5.10;99.90;;;;;;5017201;28;20037;-77
2022/03/06 10:30:37;;;;;;;4.68;2.17;;;5.30;99.90;;;;;;5000882;28;20036;-77
2022/03/06 10:33:18;;;;;;;4.72;2.90;;;5.40;99.90;;;;;;5013635;28;20528;-77
2022/03/06 10:35:47;;;;;;;3.58;2.20;;;5.40;99.90;;;;;;5014052;28;20055;-77
2022/03/06 10:38:23;;;;;;;4.15;1.88;;;5.60;99.90;;;;;;5033873;28;20033;-77
2022/03/06 10:40:50;;;;;;;3.90;1.90;;;5.70;99.90;;;;;;5000614;28;20477;-77
2022/03/06 10:43:20;;;;;;;4.68;1.83;;;5.90;99.90;;;;;;5017074;28;20033;-77
2022/03/06 10:45:47;;;;;;;3.85;2.20;;;6.00;99.90;;;;;;5017287;28;20049;-77
2022/03/06 10:48:13;;;;;;;5.88;2.33;;;6.10;99.90;;;;;;5007968;28;20046;-78
2022/03/06 10:50:39;;;;;;;4.30;2.15;;;6.00;99.90;;;;;;5032468;28;20530;-77
2022/03/06 10:53:21;;;;;;;4.07;1.90;;;6.20;99.90;;;;;;4999655;28;20036;-77
2022/03/06 10:55:47;;;;;;;4.78;2.40;;;6.20;99.90;;;;;;5018987;28;20025;-77
2022/03/06 10:58:13;;;;;;;4.55;2.08;;;6.10;99.90;;;;;;5014923;28;21392;-77
2022/03/06 11:00:40;;;;;;;3.03;1.90;;;6.30;99.90;;;;;;5016775;28;20081;-77
2022/03/06 11:03:07;;;;;;;3.03;2.15;;;6.60;99.90;;;;;;5012200;28;20030;-77
2022/03/06 11:05:33;;;;;;;4.18;2.28;;;6.70;99.90;;;;;;5014785;28;20087;-77
2022/03/06 11:08:00;;;;;;;3.00;1.95;;;6.50;99.90;;;;;;5000458;28;20040;-77
2022/03/06 11:10:27;;;;;;;4.05;2.38;;;6.70;99.90;;;;;;4999594;28;20110;-77
2022/03/06 11:12:54;;;;;;;4.70;3.00;;;6.80;99.90;;;;;;4996222;28;20369;-77
2022/03/06 11:15:20;;;;;;;4.60;2.40;;;6.50;99.90;;;;;;4994877;28;20037;-77
2022/03/06 11:17:46;;;;;;;4.47;2.85;;;6.70;99.90;;;;;;5021939;28;20150;-78
2022/03/06 11:20:12;;;;;;;3.88;2.47;;;6.50;99.90;;;;;;5032667;28;20037;-77
2022/03/06 11:23:09;;;;;;;5.10;3.22;;;6.80;99.90;;;;;;5016666;28;21717;-77
2022/03/06 11:25:45;;;;;;;3.80;2.58;;;6.80;99.90;;;;;;5012809;28;20065;-77
2022/03/06 11:28:22;;;;;;;3.50;2.75;;;6.90;99.90;;;;;;5011664;28;20371;-77
2022/03/06 11:30:48;;;;;;;4.20;2.45;;;7.20;99.90;;;;;;5016819;28;20566;-77
2022/03/06 11:33:13;;;;;;;6.53;3.70;;;7.00;99.90;;;;;;5015664;28;20030;-77
2022/03/06 11:35:42;;;;;;;3.60;2.58;;;6.90;99.90;;;;;;5031699;28;20091;-77
2022/03/06 11:38:13;;;;;;;4.45;3.30;;;7.20;99.90;;;;;;5013125;28;20021;-78
2022/03/06 11:40:50;;;;;;;5.20;3.85;;;6.90;99.90;;;;;;4993023;28;20033;-77
2022/03/06 11:43:37;;;;;;;4.05;3.03;;;7.10;99.90;;;;;;5031668;28;20034;-77
2022/03/06 11:46:12;;;;;;;4.55;3.05;;;7.10;99.90;;;;;;4996987;28;21180;-77
2022/03/06 11:48:37;;;;;;;3.83;2.63;;;7.20;99.90;;;;;;5016115;28;20033;-77
2022/03/06 11:51:18;;;;;;;4.45;2.85;;;7.30;99.90;;;;;;5014668;28;20040;-77
2022/03/06 11:54:15;;;;;;;3.60;2.42;;;7.20;99.90;;;;;;5017127;28;20021;-79
2022/03/06 11:56:46;;;;;;;4.88;2.92;;;7.20;99.90;;;;;;5020059;28;20033;-78
2022/03/06 11:59:17;;;;;;;5.00;3.10;;;7.50;99.90;;;;;;5035456;28;20041;-77
2022/03/06 12:02:08;;;;;;;5.28;3.88;;;7.50;99.90;;;;;;5017879;28;20060;-77
2022/03/06 12:04:45;;;;;;;3.67;2.35;;;7.40;99.90;;;;;;5029352;28;20049;-77
2022/03/06 12:07:12;;;;;;;4.97;3.40;;;7.20;99.90;;;;;;5019289;28;20041;-78
2022/03/06 12:09:40;;;;;;;7.38;4.45;;;7.20;99.90;;;;;;5017404;28;20072;-77
2022/03/06 12:12:09;;;;;;;6.13;2.83;;;7.00;99.90;;;;;;5030302;28;20067;-77
2022/03/06 12:14:41;;;;;;;3.88;2.65;;;7.60;99.90;;;;;;5019376;28;20025;-77
2022/03/06 12:17:07;;;;;;;4.25;2.80;;;7.20;99.90;;;;;;5035120;28;20494;-77
2022/03/06 12:19:35;;;;;;;4.50;2.35;;;7.30;99.90;;;;;;5019205;28;20033;-77
2022/03/06 12:22:13;;;;;;;5.53;2.65;;;7.40;99.90;;;;;;5000098;28;20022;-77
2022/03/06 12:24:41;;;;;;;2.85;1.65;;;7.40;99.90;;;;;;5034897;28;20450;-78
2022/03/06 12:27:11;;;;;;;4.60;2.45;;;7.60;99.90;;;;;;5019863;28;20033;-78
2022/03/06 12:29:46;;;;;;;3.40;1.70;;;8.00;99.90;;;;;;5033671;28;20601;-77
2022/03/06 12:32:31;;;;;;;2.72;1.73;;;8.10;99.90;;;;;;5017162;28;20048;-77
2022/03/06 12:35:02;;;;;;;3.78;1.70;;;8.30;99.90;;;;;;5019285;28;20063;-78
2022/03/06 12:37:29;;;;;;;3.92;2.70;;;7.70;99.90;;;;;;5017394;28;20231;-78
2022/03/06 12:39:55;;;;;;;5.18;3.28;;;7.00;99.90;;;;;;5018092;28;20521;-78
2022/03/06 12:42:29;;;;;;;4.65;2.63;;;6.50;99.90;;;;;;4997866;28;20033;-78
2022/03/06 12:44:57;;;;;;;3.80;2.33;;;6.50;99.90;;;;;;5019325;28;20124;-78
2022/03/06 12:47:23;;;;;;;3.20;1.73;;;6.80;99.90;;;;;;5001777;28;20504;-78
2022/03/06 12:49:50;;;;;;;3.78;1.80;;;6.90;99.90;;;;;;4995250;28;20025;-77